sensor_id;sensor_type;location;lat;lon;timestamp;P1;durP1;ratioP1;P2;durP2;ratioP2
7306;SDS011;3694;48.732;9.248;2022-07-21T00:02:06;33.47;;;30.27;;
7306;SDS011;3694;48.732;9.248;2022-07-21T00:04:32;31.80;;;28.80;;
7306;SDS011;3694;48.732;9.248;2022-07-21T00:06:58;33.43;;;29.90;;
7306;SDS011;3694;48.732;9.248;2022-07-21T00:09:23;32.97;;;29.57;;
7306;SDS011;3694;48.732;9.248;2022-07-21T00:11:49;34.57;;;31.17;;
7306;SDS011;3694;48.732;9.248;2022-07-21T00:14:14;35.33;;;31.73;;
7306;SDS011;3694;48.732;9.248;2022-07-21T00:16:40;34.63;;;31.07;;
7306;SDS011;3694;48.732;9.248;2022-07-21T00:19:07;37.50;;;33.60;;
7306;SDS011;3694;48.732;9.248;2022-07-21T00:21:33;33.90;;;30.73;;
7306;SDS011;3694;48.732;9.248;2022-07-21T00:23:59;33.93;;;30.70;;
7306;SDS011;3694;48.732;9.248;2022-07-21T00:26:25;35.10;;;31.43;;
7306;SDS011;3694;48.732;9.248;2022-07-21T00:28:50;33.37;;;30.07;;
7306;SDS011;3694;48.732;9.248;2022-07-21T00:31:16;35.67;;;32.13;;
7306;SDS011;3694;48.732;9.248;2022-07-21T00:33:41;36.00;;;32.13;;
7306;SDS011;3694;48.732;9.248;2022-07-21T00:36:07;38.87;;;35.03;;
7306;SDS011;3694;48.732;9.248;2022-07-21T00:38:33;40.83;;;36.47;;
7306;SDS011;3694;48.732;9.248;2022-07-21T00:40:58;40.13;;;35.93;;
7306;SDS011;3694;48.732;9.248;2022-07-21T00:43:24;38.63;;;34.53;;
7306;SDS011;3694;48.732;9.248;2022-07-21T00:45:52;38.60;;;34.70;;
7306;SDS011;3694;48.732;9.248;2022-07-21T00:48:18;40.87;;;36.40;;
7306;SDS011;3694;48.732;9.248;2022-07-21T00:50:44;43.43;;;34.60;;
7306;SDS011;3694;48.732;9.248;2022-07-21T00:53:10;37.17;;;33.57;;
7306;SDS011;3694;48.732;9.248;2022-07-21T00:55:35;38.53;;;34.60;;
7306;SDS011;3694;48.732;9.248;2022-07-21T00:58:01;38.00;;;33.83;;
7306;SDS011;3694;48.732;9.248;2022-07-21T01:00:27;38.20;;;34.30;;
7306;SDS011;3694;48.732;9.248;2022-07-21T01:02:55;39.17;;;35.20;;
7306;SDS011;3694;48.732;9.248;2022-07-21T01:05:21;38.43;;;34.57;;
7306;SDS011;3694;48.732;9.248;2022-07-21T01:07:48;36.67;;;32.77;;
7306;SDS011;3694;48.732;9.248;2022-07-21T01:10:16;36.63;;;32.83;;
7306;SDS011;3694;48.732;9.248;2022-07-21T01:12:43;37.40;;;33.50;;
7306;SDS011;3694;48.732;9.248;2022-07-21T01:15:10;36.40;;;32.63;;
7306;SDS011;3694;48.732;9.248;2022-07-21T01:17:37;34.63;;;31.13;;
7306;SDS011;3694;48.732;9.248;2022-07-21T01:20:04;33.73;;;30.27;;
7306;SDS011;3694;48.732;9.248;2022-07-21T01:22:33;35.00;;;30.43;;
7306;SDS011;3694;48.732;9.248;2022-07-21T01:25:00;32.80;;;29.50;;
7306;SDS011;3694;48.732;9.248;2022-07-21T01:27:26;32.57;;;29.40;;
7306;SDS011;3694;48.732;9.248;2022-07-21T01:29:51;30.77;;;27.83;;
7306;SDS011;3694;48.732;9.248;2022-07-21T01:32:17;29.83;;;26.83;;
7306;SDS011;3694;48.732;9.248;2022-07-21T01:34:43;30.13;;;27.27;;
7306;SDS011;3694;48.732;9.248;2022-07-21T01:37:08;29.83;;;26.93;;
7306;SDS011;3694;48.732;9.248;2022-07-21T01:39:34;28.40;;;25.80;;
7306;SDS011;3694;48.732;9.248;2022-07-21T01:42:18;22.77;;;20.53;;
7306;SDS011;3694;48.732;9.248;2022-07-21T01:44:44;21.13;;;19.00;;
7306;SDS011;3694;48.732;9.248;2022-07-21T01:47:09;18.37;;;16.47;;
7306;SDS011;3694;48.732;9.248;2022-07-21T01:49:35;18.23;;;16.73;;
7306;SDS011;3694;48.732;9.248;2022-07-21T01:52:00;18.03;;;16.53;;
7306;SDS011;3694;48.732;9.248;2022-07-21T01:54:26;18.23;;;16.47;;
7306;SDS011;3694;48.732;9.248;2022-07-21T01:56:51;18.97;;;17.20;;
7306;SDS011;3694;48.732;9.248;2022-07-21T01:59:17;18.53;;;16.73;;
7306;SDS011;3694;48.732;9.248;2022-07-21T02:01:43;18.33;;;16.47;;
7306;SDS011;3694;48.732;9.248;2022-07-21T02:04:09;17.17;;;15.40;;
7306;SDS011;3694;48.732;9.248;2022-07-21T02:06:34;17.40;;;15.70;;
7306;SDS011;3694;48.732;9.248;2022-07-21T02:09:00;17.10;;;15.50;;
7306;SDS011;3694;48.732;9.248;2022-07-21T02:11:26;15.80;;;14.40;;
7306;SDS011;3694;48.732;9.248;2022-07-21T02:13:52;16.50;;;14.10;;
7306;SDS011;3694;48.732;9.248;2022-07-21T02:16:18;16.93;;;14.40;;
7306;SDS011;3694;48.732;9.248;2022-07-21T02:18:44;15.63;;;14.10;;
7306;SDS011;3694;48.732;9.248;2022-07-21T02:21:09;16.20;;;14.63;;
7306;SDS011;3694;48.732;9.248;2022-07-21T02:23:35;15.53;;;14.17;;
7306;SDS011;3694;48.732;9.248;2022-07-21T02:26:01;15.00;;;13.80;;
7306;SDS011;3694;48.732;9.248;2022-07-21T02:28:27;16.00;;;14.60;;
7306;SDS011;3694;48.732;9.248;2022-07-21T02:30:53;15.53;;;14.03;;
7306;SDS011;3694;48.732;9.248;2022-07-21T02:33:19;17.07;;;14.33;;
7306;SDS011;3694;48.732;9.248;2022-07-21T02:35:45;15.47;;;13.97;;
7306;SDS011;3694;48.732;9.248;2022-07-21T02:38:10;13.23;;;12.03;;
7306;SDS011;3694;48.732;9.248;2022-07-21T02:40:36;14.40;;;13.10;;
7306;SDS011;3694;48.732;9.248;2022-07-21T02:43:03;14.83;;;13.43;;
7306;SDS011;3694;48.732;9.248;2022-07-21T02:45:30;13.80;;;12.40;;
7306;SDS011;3694;48.732;9.248;2022-07-21T02:48:06;13.80;;;12.50;;
7306;SDS011;3694;48.732;9.248;2022-07-21T02:50:34;14.40;;;13.10;;
7306;SDS011;3694;48.732;9.248;2022-07-21T02:53:02;14.17;;;13.07;;
7306;SDS011;3694;48.732;9.248;2022-07-21T02:55:30;13.87;;;12.67;;
7306;SDS011;3694;48.732;9.248;2022-07-21T02:58:09;14.63;;;13.23;;
7306;SDS011;3694;48.732;9.248;2022-07-21T03:00:40;13.10;;;12.00;;
7306;SDS011;3694;48.732;9.248;2022-07-21T03:03:08;13.23;;;12.03;;
7306;SDS011;3694;48.732;9.248;2022-07-21T03:05:36;13.43;;;12.13;;
7306;SDS011;3694;48.732;9.248;2022-07-21T03:08:02;13.67;;;12.00;;
7306;SDS011;3694;48.732;9.248;2022-07-21T03:10:29;13.20;;;12.10;;
7306;SDS011;3694;48.732;9.248;2022-07-21T03:12:54;13.00;;;11.80;;
7306;SDS011;3694;48.732;9.248;2022-07-21T03:15:20;12.37;;;11.37;;
7306;SDS011;3694;48.732;9.248;2022-07-21T03:17:46;12.87;;;11.70;;
7306;SDS011;3694;48.732;9.248;2022-07-21T03:20:12;12.67;;;11.47;;
7306;SDS011;3694;48.732;9.248;2022-07-21T03:22:38;13.00;;;11.80;;
7306;SDS011;3694;48.732;9.248;2022-07-21T03:25:04;13.53;;;12.33;;
7306;SDS011;3694;48.732;9.248;2022-07-21T03:27:30;12.87;;;11.70;;
7306;SDS011;3694;48.732;9.248;2022-07-21T03:29:55;13.27;;;12.03;;
7306;SDS011;3694;48.732;9.248;2022-07-21T03:32:21;13.47;;;12.30;;
7306;SDS011;3694;48.732;9.248;2022-07-21T03:34:46;13.93;;;12.63;;
7306;SDS011;3694;48.732;9.248;2022-07-21T03:37:12;14.10;;;12.60;;
7306;SDS011;3694;48.732;9.248;2022-07-21T03:39:37;14.70;;;12.13;;
7306;SDS011;3694;48.732;9.248;2022-07-21T03:42:03;12.97;;;11.97;;
7306;SDS011;3694;48.732;9.248;2022-07-21T03:44:29;13.77;;;12.47;;
7306;SDS011;3694;48.732;9.248;2022-07-21T03:46:55;13.63;;;12.37;;
7306;SDS011;3694;48.732;9.248;2022-07-21T03:49:23;13.53;;;12.43;;
7306;SDS011;3694;48.732;9.248;2022-07-21T03:51:49;14.30;;;13.00;;
7306;SDS011;3694;48.732;9.248;2022-07-21T03:54:14;14.23;;;12.83;;
7306;SDS011;3694;48.732;9.248;2022-07-21T03:56:40;12.90;;;11.80;;
7306;SDS011;3694;48.732;9.248;2022-07-21T03:59:05;13.67;;;12.40;;
7306;SDS011;3694;48.732;9.248;2022-07-21T04:01:31;13.50;;;12.40;;
7306;SDS011;3694;48.732;9.248;2022-07-21T04:03:57;13.97;;;12.43;;
7306;SDS011;3694;48.732;9.248;2022-07-21T04:06:22;13.97;;;12.67;;
7306;SDS011;3694;48.732;9.248;2022-07-21T04:08:48;13.43;;;12.07;;
7306;SDS011;3694;48.732;9.248;2022-07-21T04:11:13;14.17;;;12.73;;
7306;SDS011;3694;48.732;9.248;2022-07-21T04:13:39;13.37;;;12.07;;
7306;SDS011;3694;48.732;9.248;2022-07-21T04:16:04;13.93;;;12.50;;
7306;SDS011;3694;48.732;9.248;2022-07-21T04:18:30;13.40;;;12.10;;
7306;SDS011;3694;48.732;9.248;2022-07-21T04:20:56;14.93;;;12.80;;
7306;SDS011;3694;48.732;9.248;2022-07-21T04:23:21;14.57;;;13.20;;
7306;SDS011;3694;48.732;9.248;2022-07-21T04:25:47;14.00;;;12.80;;
7306;SDS011;3694;48.732;9.248;2022-07-21T04:28:12;13.57;;;12.27;;
7306;SDS011;3694;48.732;9.248;2022-07-21T04:30:38;14.03;;;12.77;;
7306;SDS011;3694;48.732;9.248;2022-07-21T04:33:04;14.40;;;13.03;;
7306;SDS011;3694;48.732;9.248;2022-07-21T04:35:31;14.27;;;12.80;;
7306;SDS011;3694;48.732;9.248;2022-07-21T04:37:57;14.50;;;13.17;;
7306;SDS011;3694;48.732;9.248;2022-07-21T04:40:22;13.90;;;12.50;;
7306;SDS011;3694;48.732;9.248;2022-07-21T04:42:48;13.10;;;11.90;;
7306;SDS011;3694;48.732;9.248;2022-07-21T04:45:14;11.57;;;10.60;;
7306;SDS011;3694;48.732;9.248;2022-07-21T04:47:51;12.00;;;10.77;;
7306;SDS011;3694;48.732;9.248;2022-07-21T04:50:19;11.37;;;10.27;;
7306;SDS011;3694;48.732;9.248;2022-07-21T04:52:46;11.47;;;10.43;;
7306;SDS011;3694;48.732;9.248;2022-07-21T04:55:12;11.97;;;10.90;;
7306;SDS011;3694;48.732;9.248;2022-07-21T04:57:56;11.17;;;10.17;;
7306;SDS011;3694;48.732;9.248;2022-07-21T05:00:24;12.10;;;11.03;;
7306;SDS011;3694;48.732;9.248;2022-07-21T05:02:50;11.63;;;10.63;;
7306;SDS011;3694;48.732;9.248;2022-07-21T05:05:17;10.97;;;10.07;;
7306;SDS011;3694;48.732;9.248;2022-07-21T05:07:43;11.70;;;10.57;;
7306;SDS011;3694;48.732;9.248;2022-07-21T05:10:09;10.47;;;9.57;;
7306;SDS011;3694;48.732;9.248;2022-07-21T05:12:37;11.17;;;10.17;;
7306;SDS011;3694;48.732;9.248;2022-07-21T05:15:03;10.60;;;9.37;;
7306;SDS011;3694;48.732;9.248;2022-07-21T05:17:30;10.67;;;8.90;;
7306;SDS011;3694;48.732;9.248;2022-07-21T05:19:56;9.33;;;8.53;;
7306;SDS011;3694;48.732;9.248;2022-07-21T05:22:23;9.43;;;8.63;;
7306;SDS011;3694;48.732;9.248;2022-07-21T05:24:52;8.20;;;7.50;;
7306;SDS011;3694;48.732;9.248;2022-07-21T05:27:21;8.30;;;7.57;;
7306;SDS011;3694;48.732;9.248;2022-07-21T05:29:47;7.60;;;6.90;;
7306;SDS011;3694;48.732;9.248;2022-07-21T05:32:12;7.43;;;6.70;;
7306;SDS011;3694;48.732;9.248;2022-07-21T05:34:38;7.37;;;6.67;;
7306;SDS011;3694;48.732;9.248;2022-07-21T05:37:03;8.40;;;6.17;;
7306;SDS011;3694;48.732;9.248;2022-07-21T05:39:29;10.80;;;6.30;;
7306;SDS011;3694;48.732;9.248;2022-07-21T05:41:55;7.35;;;6.68;;
7306;SDS011;3694;48.732;9.248;2022-07-21T05:44:20;6.97;;;6.38;;
7306;SDS011;3694;48.732;9.248;2022-07-21T05:46:45;6.85;;;6.15;;
7306;SDS011;3694;48.732;9.248;2022-07-21T05:49:11;6.82;;;6.18;;
7306;SDS011;3694;48.732;9.248;2022-07-21T05:51:37;7.65;;;6.10;;
7306;SDS011;3694;48.732;9.248;2022-07-21T05:54:02;7.88;;;6.28;;
7306;SDS011;3694;48.732;9.248;2022-07-21T05:56:28;6.57;;;6.07;;
7306;SDS011;3694;48.732;9.248;2022-07-21T05:58:53;7.28;;;6.60;;
7306;SDS011;3694;48.732;9.248;2022-07-21T06:01:19;6.95;;;6.25;;
7306;SDS011;3694;48.732;9.248;2022-07-21T06:03:45;8.25;;;6.57;;
7306;SDS011;3694;48.732;9.248;2022-07-21T06:06:16;7.22;;;6.63;;
7306;SDS011;3694;48.732;9.248;2022-07-21T06:08:44;7.75;;;6.78;;
7306;SDS011;3694;48.732;9.248;2022-07-21T06:11:12;7.15;;;6.65;;
7306;SDS011;3694;48.732;9.248;2022-07-21T06:13:39;7.38;;;6.57;;
7306;SDS011;3694;48.732;9.248;2022-07-21T06:16:06;7.20;;;6.60;;
7306;SDS011;3694;48.732;9.248;2022-07-21T06:18:32;7.30;;;6.70;;
7306;SDS011;3694;48.732;9.248;2022-07-21T06:20:58;7.53;;;6.75;;
7306;SDS011;3694;48.732;9.248;2022-07-21T06:23:23;7.28;;;6.43;;
7306;SDS011;3694;48.732;9.248;2022-07-21T06:25:50;7.10;;;6.40;;
7306;SDS011;3694;48.732;9.248;2022-07-21T06:28:16;7.20;;;6.20;;
7306;SDS011;3694;48.732;9.248;2022-07-21T06:30:42;7.47;;;6.65;;
7306;SDS011;3694;48.732;9.248;2022-07-21T06:33:08;7.30;;;6.60;;
7306;SDS011;3694;48.732;9.248;2022-07-21T06:35:34;6.88;;;6.28;;
7306;SDS011;3694;48.732;9.248;2022-07-21T06:37:59;6.38;;;5.88;;
7306;SDS011;3694;48.732;9.248;2022-07-21T06:40:25;6.72;;;5.93;;
7306;SDS011;3694;48.732;9.248;2022-07-21T06:42:51;6.90;;;6.30;;
7306;SDS011;3694;48.732;9.248;2022-07-21T06:45:16;6.60;;;5.97;;
7306;SDS011;3694;48.732;9.248;2022-07-21T06:47:42;6.60;;;6.00;;
7306;SDS011;3694;48.732;9.248;2022-07-21T06:50:08;6.25;;;5.55;;
7306;SDS011;3694;48.732;9.248;2022-07-21T06:52:35;6.70;;;5.78;;
7306;SDS011;3694;48.732;9.248;2022-07-21T06:55:02;6.88;;;5.68;;
7306;SDS011;3694;48.732;9.248;2022-07-21T06:57:30;6.90;;;6.07;;
7306;SDS011;3694;48.732;9.248;2022-07-21T06:59:55;6.38;;;5.82;;
7306;SDS011;3694;48.732;9.248;2022-07-21T07:02:21;6.30;;;5.70;;
7306;SDS011;3694;48.732;9.248;2022-07-21T07:04:46;6.85;;;6.20;;
7306;SDS011;3694;48.732;9.248;2022-07-21T07:07:12;6.68;;;5.97;;
7306;SDS011;3694;48.732;9.248;2022-07-21T07:09:38;6.75;;;6.13;;
7306;SDS011;3694;48.732;9.248;2022-07-21T07:12:03;7.35;;;5.70;;
7306;SDS011;3694;48.732;9.248;2022-07-21T07:14:34;6.22;;;5.63;;
7306;SDS011;3694;48.732;9.248;2022-07-21T07:17:01;5.95;;;5.45;;
7306;SDS011;3694;48.732;9.248;2022-07-21T07:19:27;6.00;;;4.90;;
7306;SDS011;3694;48.732;9.248;2022-07-21T07:21:53;5.20;;;4.80;;
7306;SDS011;3694;48.732;9.248;2022-07-21T07:24:19;6.00;;;5.40;;
7306;SDS011;3694;48.732;9.248;2022-07-21T07:26:45;6.10;;;5.50;;
7306;SDS011;3694;48.732;9.248;2022-07-21T07:29:10;5.03;;;4.60;;
7306;SDS011;3694;48.732;9.248;2022-07-21T07:31:36;5.70;;;5.20;;
7306;SDS011;3694;48.732;9.248;2022-07-21T07:34:02;5.50;;;5.00;;
7306;SDS011;3694;48.732;9.248;2022-07-21T07:36:28;5.00;;;4.60;;
7306;SDS011;3694;48.732;9.248;2022-07-21T07:38:55;5.80;;;5.30;;
7306;SDS011;3694;48.732;9.248;2022-07-21T07:41:22;5.43;;;5.03;;
7306;SDS011;3694;48.732;9.248;2022-07-21T07:43:49;6.25;;;5.72;;
7306;SDS011;3694;48.732;9.248;2022-07-21T07:46:16;6.82;;;6.03;;
7306;SDS011;3694;48.732;9.248;2022-07-21T07:48:42;7.20;;;5.65;;
7306;SDS011;3694;48.732;9.248;2022-07-21T07:51:09;6.97;;;6.30;;
7306;SDS011;3694;48.732;9.248;2022-07-21T07:53:36;7.07;;;6.38;;
7306;SDS011;3694;48.732;9.248;2022-07-21T07:56:02;6.45;;;5.90;;
7306;SDS011;3694;48.732;9.248;2022-07-21T07:58:28;6.60;;;6.00;;
7306;SDS011;3694;48.732;9.248;2022-07-21T08:00:54;6.28;;;5.80;;
7306;SDS011;3694;48.732;9.248;2022-07-21T08:03:20;6.38;;;5.78;;
7306;SDS011;3694;48.732;9.248;2022-07-21T08:05:47;6.25;;;5.65;;
7306;SDS011;3694;48.732;9.248;2022-07-21T08:08:13;5.57;;;4.80;;
7306;SDS011;3694;48.732;9.248;2022-07-21T08:10:39;7.75;;;5.35;;
7306;SDS011;3694;48.732;9.248;2022-07-21T08:13:04;5.85;;;5.10;;
7306;SDS011;3694;48.732;9.248;2022-07-21T08:15:30;6.28;;;5.00;;
7306;SDS011;3694;48.732;9.248;2022-07-21T08:17:55;5.50;;;5.00;;
7306;SDS011;3694;48.732;9.248;2022-07-21T08:20:21;5.72;;;5.10;;
7306;SDS011;3694;48.732;9.248;2022-07-21T08:22:46;5.47;;;4.88;;
7306;SDS011;3694;48.732;9.248;2022-07-21T08:25:12;5.30;;;4.80;;
7306;SDS011;3694;48.732;9.248;2022-07-21T08:27:38;5.78;;;5.13;;
7306;SDS011;3694;48.732;9.248;2022-07-21T08:30:04;5.07;;;4.57;;
7306;SDS011;3694;48.732;9.248;2022-07-21T08:32:30;5.68;;;5.10;;
7306;SDS011;3694;48.732;9.248;2022-07-21T08:34:56;5.70;;;5.07;;
7306;SDS011;3694;48.732;9.248;2022-07-21T08:37:21;5.75;;;5.20;;
7306;SDS011;3694;48.732;9.248;2022-07-21T08:39:47;5.25;;;4.75;;
7306;SDS011;3694;48.732;9.248;2022-07-21T08:42:13;5.28;;;4.88;;
7306;SDS011;3694;48.732;9.248;2022-07-21T08:44:39;5.28;;;4.78;;
7306;SDS011;3694;48.732;9.248;2022-07-21T08:47:04;4.78;;;4.25;;
7306;SDS011;3694;48.732;9.248;2022-07-21T08:49:30;7.53;;;4.88;;
7306;SDS011;3694;48.732;9.248;2022-07-21T08:52:00;4.70;;;4.30;;
7306;SDS011;3694;48.732;9.248;2022-07-21T08:54:27;4.20;;;3.90;;
7306;SDS011;3694;48.732;9.248;2022-07-21T08:56:53;4.47;;;4.07;;
7306;SDS011;3694;48.732;9.248;2022-07-21T08:59:20;4.68;;;3.50;;
7306;SDS011;3694;48.732;9.248;2022-07-21T09:01:47;3.97;;;3.67;;
7306;SDS011;3694;48.732;9.248;2022-07-21T09:04:20;3.60;;;3.30;;
7306;SDS011;3694;48.732;9.248;2022-07-21T09:07:12;3.85;;;3.55;;
7306;SDS011;3694;48.732;9.248;2022-07-21T09:09:41;3.42;;;3.13;;
7306;SDS011;3694;48.732;9.248;2022-07-21T09:12:23;3.83;;;3.53;;
7306;SDS011;3694;48.732;9.248;2022-07-21T09:14:52;3.83;;;3.53;;
7306;SDS011;3694;48.732;9.248;2022-07-21T09:17:36;4.80;;;3.50;;
7306;SDS011;3694;48.732;9.248;2022-07-21T09:20:02;3.67;;;3.30;;
7306;SDS011;3694;48.732;9.248;2022-07-21T09:22:27;5.90;;;3.60;;
7306;SDS011;3694;48.732;9.248;2022-07-21T09:24:54;4.47;;;3.88;;
7306;SDS011;3694;48.732;9.248;2022-07-21T09:27:23;4.18;;;3.78;;
7306;SDS011;3694;48.732;9.248;2022-07-21T09:29:50;4.50;;;3.92;;
7306;SDS011;3694;48.732;9.248;2022-07-21T09:32:19;4.32;;;3.65;;
7306;SDS011;3694;48.732;9.248;2022-07-21T09:34:49;4.05;;;3.47;;
7306;SDS011;3694;48.732;9.248;2022-07-21T09:37:16;4.60;;;3.20;;
7306;SDS011;3694;48.732;9.248;2022-07-21T09:39:50;4.07;;;3.50;;
7306;SDS011;3694;48.732;9.248;2022-07-21T09:44:45;3.63;;;3.33;;
7306;SDS011;3694;48.732;9.248;2022-07-21T09:47:13;3.83;;;3.33;;
7306;SDS011;3694;48.732;9.248;2022-07-21T09:49:40;5.50;;;4.05;;
7306;SDS011;3694;48.732;9.248;2022-07-21T09:54:56;4.32;;;3.92;;
7306;SDS011;3694;48.732;9.248;2022-07-21T09:57:24;4.20;;;3.80;;
7306;SDS011;3694;48.732;9.248;2022-07-21T09:59:51;4.28;;;3.88;;
7306;SDS011;3694;48.732;9.248;2022-07-21T10:02:21;3.95;;;3.63;;
7306;SDS011;3694;48.732;9.248;2022-07-21T10:07:24;4.05;;;3.65;;
7306;SDS011;3694;48.732;9.248;2022-07-21T10:09:52;4.32;;;3.92;;
7306;SDS011;3694;48.732;9.248;2022-07-21T10:12:18;5.43;;;3.55;;
7306;SDS011;3694;48.732;9.248;2022-07-21T10:14:45;3.70;;;3.40;;
7306;SDS011;3694;48.732;9.248;2022-07-21T10:17:12;4.05;;;3.65;;
7306;SDS011;3694;48.732;9.248;2022-07-21T10:25:37;3.95;;;3.65;;
7306;SDS011;3694;48.732;9.248;2022-07-21T10:30:42;4.70;;;4.13;;
7306;SDS011;3694;48.732;9.248;2022-07-21T10:33:14;3.78;;;3.38;;
7306;SDS011;3694;48.732;9.248;2022-07-21T10:35:42;4.38;;;3.90;;
7306;SDS011;3694;48.732;9.248;2022-07-21T10:38:24;4.20;;;3.63;;
7306;SDS011;3694;48.732;9.248;2022-07-21T10:40:50;4.43;;;3.30;;
7306;SDS011;3694;48.732;9.248;2022-07-21T10:45:51;3.90;;;3.60;;
7306;SDS011;3694;48.732;9.248;2022-07-21T10:51:02;3.67;;;3.38;;
7306;SDS011;3694;48.732;9.248;2022-07-21T10:53:29;4.30;;;3.38;;
7306;SDS011;3694;48.732;9.248;2022-07-21T10:55:55;3.95;;;3.58;;
7306;SDS011;3694;48.732;9.248;2022-07-21T10:58:27;3.97;;;3.58;;
7306;SDS011;3694;48.732;9.248;2022-07-21T11:03:36;3.35;;;3.08;;
7306;SDS011;3694;48.732;9.248;2022-07-21T11:11:07;3.33;;;3.05;;
7306;SDS011;3694;48.732;9.248;2022-07-21T11:22:00;2.95;;;2.65;;
7306;SDS011;3694;48.732;9.248;2022-07-21T11:24:30;3.08;;;2.80;;
7306;SDS011;3694;48.732;9.248;2022-07-21T11:27:07;3.22;;;2.92;;
7306;SDS011;3694;48.732;9.248;2022-07-21T11:29:34;3.25;;;3.03;;
7306;SDS011;3694;48.732;9.248;2022-07-21T11:32:02;3.67;;;3.38;;
7306;SDS011;3694;48.732;9.248;2022-07-21T11:34:50;3.17;;;2.97;;
7306;SDS011;3694;48.732;9.248;2022-07-21T11:40:01;3.30;;;3.00;;
7306;SDS011;3694;48.732;9.248;2022-07-21T11:42:28;3.15;;;2.85;;
7306;SDS011;3694;48.732;9.248;2022-07-21T11:44:55;3.97;;;3.00;;
7306;SDS011;3694;48.732;9.248;2022-07-21T11:47:22;3.50;;;3.05;;
7306;SDS011;3694;48.732;9.248;2022-07-21T11:49:51;3.50;;;2.78;;
7306;SDS011;3694;48.732;9.248;2022-07-21T11:52:18;4.25;;;2.83;;
7306;SDS011;3694;48.732;9.248;2022-07-21T11:54:54;3.10;;;2.90;;
7306;SDS011;3694;48.732;9.248;2022-07-21T11:57:22;3.50;;;3.20;;
7306;SDS011;3694;48.732;9.248;2022-07-21T11:59:49;3.28;;;3.03;;
7306;SDS011;3694;48.732;9.248;2022-07-21T12:02:19;3.55;;;3.25;;
7306;SDS011;3694;48.732;9.248;2022-07-21T12:04:50;3.72;;;3.17;;
7306;SDS011;3694;48.732;9.248;2022-07-21T12:07:19;3.53;;;3.22;;
7306;SDS011;3694;48.732;9.248;2022-07-21T12:09:47;3.40;;;3.10;;
7306;SDS011;3694;48.732;9.248;2022-07-21T12:12:27;4.25;;;3.40;;
7306;SDS011;3694;48.732;9.248;2022-07-21T12:15:09;3.17;;;2.88;;
7306;SDS011;3694;48.732;9.248;2022-07-21T12:17:36;3.47;;;3.03;;
7306;SDS011;3694;48.732;9.248;2022-07-21T12:20:04;3.05;;;2.85;;
7306;SDS011;3694;48.732;9.248;2022-07-21T12:22:41;3.13;;;2.92;;
7306;SDS011;3694;48.732;9.248;2022-07-21T12:25:11;3.17;;;2.88;;
7306;SDS011;3694;48.732;9.248;2022-07-21T12:27:39;3.30;;;3.00;;
7306;SDS011;3694;48.732;9.248;2022-07-21T12:30:06;3.38;;;2.95;;
7306;SDS011;3694;48.732;9.248;2022-07-21T12:32:38;5.80;;;3.42;;
7306;SDS011;3694;48.732;9.248;2022-07-21T12:35:05;2.80;;;2.60;;
7306;SDS011;3694;48.732;9.248;2022-07-21T12:38:00;3.47;;;3.17;;
7306;SDS011;3694;48.732;9.248;2022-07-21T12:40:28;3.45;;;3.15;;
7306;SDS011;3694;48.732;9.248;2022-07-21T12:43:04;4.70;;;3.58;;
7306;SDS011;3694;48.732;9.248;2022-07-21T12:45:30;3.60;;;3.03;;
7306;SDS011;3694;48.732;9.248;2022-07-21T12:48:06;3.83;;;3.13;;
7306;SDS011;3694;48.732;9.248;2022-07-21T12:50:33;3.30;;;3.05;;
7306;SDS011;3694;48.732;9.248;2022-07-21T12:52:58;3.58;;;3.22;;
7306;SDS011;3694;48.732;9.248;2022-07-21T12:55:24;3.25;;;3.05;;
7306;SDS011;3694;48.732;9.248;2022-07-21T12:57:50;3.53;;;3.22;;
7306;SDS011;3694;48.732;9.248;2022-07-21T13:00:15;3.75;;;3.03;;
7306;SDS011;3694;48.732;9.248;2022-07-21T13:02:51;6.30;;;3.75;;
7306;SDS011;3694;48.732;9.248;2022-07-21T13:05:19;4.22;;;3.83;;
7306;SDS011;3694;48.732;9.248;2022-07-21T13:07:45;4.68;;;4.28;;
7306;SDS011;3694;48.732;9.248;2022-07-21T13:10:11;5.63;;;4.63;;
7306;SDS011;3694;48.732;9.248;2022-07-21T13:12:37;7.93;;;4.57;;
7306;SDS011;3694;48.732;9.248;2022-07-21T13:15:03;5.80;;;4.53;;
7306;SDS011;3694;48.732;9.248;2022-07-21T13:17:30;4.57;;;4.22;;
7306;SDS011;3694;48.732;9.248;2022-07-21T13:19:56;6.15;;;4.43;;
7306;SDS011;3694;48.732;9.248;2022-07-21T13:22:22;5.05;;;4.57;;
7306;SDS011;3694;48.732;9.248;2022-07-21T13:24:47;6.03;;;4.50;;
7306;SDS011;3694;48.732;9.248;2022-07-21T13:27:13;5.13;;;4.07;;
7306;SDS011;3694;48.732;9.248;2022-07-21T13:29:38;5.03;;;3.95;;
7306;SDS011;3694;48.732;9.248;2022-07-21T13:32:05;5.00;;;4.60;;
7306;SDS011;3694;48.732;9.248;2022-07-21T13:34:31;5.88;;;4.70;;
7306;SDS011;3694;48.732;9.248;2022-07-21T13:36:57;5.10;;;4.70;;
7306;SDS011;3694;48.732;9.248;2022-07-21T13:39:23;4.97;;;4.30;;
7306;SDS011;3694;48.732;9.248;2022-07-21T13:41:51;4.50;;;4.07;;
7306;SDS011;3694;48.732;9.248;2022-07-21T13:44:18;4.90;;;4.47;;
7306;SDS011;3694;48.732;9.248;2022-07-21T13:46:43;5.10;;;4.22;;
7306;SDS011;3694;48.732;9.248;2022-07-21T13:49:09;4.72;;;4.20;;
7306;SDS011;3694;48.732;9.248;2022-07-21T13:51:35;4.65;;;3.83;;
7306;SDS011;3694;48.732;9.248;2022-07-21T13:54:00;5.88;;;4.30;;
7306;SDS011;3694;48.732;9.248;2022-07-21T13:56:26;4.80;;;4.40;;
7306;SDS011;3694;48.732;9.248;2022-07-21T13:58:51;4.18;;;3.80;;
7306;SDS011;3694;48.732;9.248;2022-07-21T14:01:17;7.13;;;4.70;;
7306;SDS011;3694;48.732;9.248;2022-07-21T14:03:43;4.53;;;4.13;;
7306;SDS011;3694;48.732;9.248;2022-07-21T14:06:09;5.65;;;4.53;;
7306;SDS011;3694;48.732;9.248;2022-07-21T14:08:36;4.72;;;4.32;;
7306;SDS011;3694;48.732;9.248;2022-07-21T14:11:02;5.05;;;4.30;;
7306;SDS011;3694;48.732;9.248;2022-07-21T14:13:29;4.70;;;3.90;;
7306;SDS011;3694;48.732;9.248;2022-07-21T14:15:55;4.25;;;3.88;;
7306;SDS011;3694;48.732;9.248;2022-07-21T14:18:21;4.78;;;4.35;;
7306;SDS011;3694;48.732;9.248;2022-07-21T14:20:46;5.15;;;4.50;;
7306;SDS011;3694;48.732;9.248;2022-07-21T14:23:13;4.53;;;4.22;;
7306;SDS011;3694;48.732;9.248;2022-07-21T14:25:38;4.63;;;3.92;;
7306;SDS011;3694;48.732;9.248;2022-07-21T14:28:04;4.28;;;3.88;;
7306;SDS011;3694;48.732;9.248;2022-07-21T14:30:30;5.38;;;3.90;;
7306;SDS011;3694;48.732;9.248;2022-07-21T14:32:56;6.10;;;4.45;;
7306;SDS011;3694;48.732;9.248;2022-07-21T14:35:22;5.10;;;4.05;;
7306;SDS011;3694;48.732;9.248;2022-07-21T14:37:48;4.13;;;3.72;;
7306;SDS011;3694;48.732;9.248;2022-07-21T14:40:15;4.68;;;3.60;;
7306;SDS011;3694;48.732;9.248;2022-07-21T14:42:41;4.55;;;3.97;;
7306;SDS011;3694;48.732;9.248;2022-07-21T14:45:08;5.72;;;4.20;;
7306;SDS011;3694;48.732;9.248;2022-07-21T14:47:34;4.80;;;4.18;;
7306;SDS011;3694;48.732;9.248;2022-07-21T14:49:59;4.22;;;3.85;;
7306;SDS011;3694;48.732;9.248;2022-07-21T14:52:25;4.10;;;3.80;;
7306;SDS011;3694;48.732;9.248;2022-07-21T14:54:51;3.53;;;3.22;;
7306;SDS011;3694;48.732;9.248;2022-07-21T14:57:16;4.00;;;3.70;;
7306;SDS011;3694;48.732;9.248;2022-07-21T14:59:42;4.05;;;3.75;;
7306;SDS011;3694;48.732;9.248;2022-07-21T15:02:08;4.35;;;4.00;;
7306;SDS011;3694;48.732;9.248;2022-07-21T15:04:33;4.18;;;3.78;;
7306;SDS011;3694;48.732;9.248;2022-07-21T15:06:59;3.70;;;3.40;;
7306;SDS011;3694;48.732;9.248;2022-07-21T15:09:25;3.70;;;3.42;;
7306;SDS011;3694;48.732;9.248;2022-07-21T15:11:51;5.65;;;3.95;;
7306;SDS011;3694;48.732;9.248;2022-07-21T15:14:16;4.22;;;3.83;;
7306;SDS011;3694;48.732;9.248;2022-07-21T15:16:42;3.97;;;3.58;;
7306;SDS011;3694;48.732;9.248;2022-07-21T15:19:08;4.07;;;3.75;;
7306;SDS011;3694;48.732;9.248;2022-07-21T15:21:34;4.03;;;3.45;;
7306;SDS011;3694;48.732;9.248;2022-07-21T15:24:00;3.92;;;3.53;;
7306;SDS011;3694;48.732;9.248;2022-07-21T15:26:27;3.58;;;3.28;;
7306;SDS011;3694;48.732;9.248;2022-07-21T15:28:54;4.10;;;3.63;;
7306;SDS011;3694;48.732;9.248;2022-07-21T15:31:23;4.95;;;3.70;;
7306;SDS011;3694;48.732;9.248;2022-07-21T15:33:48;5.28;;;3.40;;
7306;SDS011;3694;48.732;9.248;2022-07-21T15:36:14;4.13;;;3.72;;
7306;SDS011;3694;48.732;9.248;2022-07-21T15:38:40;3.70;;;3.40;;
7306;SDS011;3694;48.732;9.248;2022-07-21T15:41:07;3.90;;;3.60;;
7306;SDS011;3694;48.732;9.248;2022-07-21T15:43:33;3.80;;;3.50;;
7306;SDS011;3694;48.732;9.248;2022-07-21T15:45:58;3.92;;;3.60;;